sensor_id;sensor_type;location;lat;lon;timestamp;temperature;humidity
75155;HTU21D;63735;44.730;37.818;2023-04-02T00:02:28;5.66;54.16
75155;HTU21D;63735;44.730;37.818;2023-04-02T00:07:51;5.67;54.33
75155;HTU21D;63735;44.730;37.818;2023-04-02T00:15:40;5.60;54.62
75155;HTU21D;63735;44.730;37.818;2023-04-02T00:18:09;5.52;54.83
75155;HTU21D;63735;44.730;37.818;2023-04-02T00:20:40;5.45;55.05
75155;HTU21D;63735;44.730;37.818;2023-04-02T00:23:11;5.38;55.26
75155;HTU21D;63735;44.730;37.818;2023-04-02T00:25:39;5.36;55.41
75155;HTU21D;63735;44.730;37.818;2023-04-02T00:28:19;5.35;55.55
75155;HTU21D;63735;44.730;37.818;2023-04-02T00:30:52;5.36;55.63
75155;HTU21D;63735;44.730;37.818;2023-04-02T00:33:21;5.35;55.75
75155;HTU21D;63735;44.730;37.818;2023-04-02T00:35:50;5.35;55.88
75155;HTU21D;63735;44.730;37.818;2023-04-02T00:38:22;5.35;55.97
75155;HTU21D;63735;44.730;37.818;2023-04-02T00:40:50;5.36;56.12
75155;HTU21D;63735;44.730;37.818;2023-04-02T00:43:17;5.38;56.21
75155;HTU21D;63735;44.730;37.818;2023-04-02T00:45:48;5.40;56.37
75155;HTU21D;63735;44.730;37.818;2023-04-02T00:51:21;5.50;56.55
75155;HTU21D;63735;44.730;37.818;2023-04-02T00:53:51;5.52;56.62
75155;HTU21D;63735;44.730;37.818;2023-04-02T00:56:32;5.57;56.81
75155;HTU21D;63735;44.730;37.818;2023-04-02T00:59:01;5.59;56.91
75155;HTU21D;63735;44.730;37.818;2023-04-02T01:01:33;5.63;57.04
75155;HTU21D;63735;44.730;37.818;2023-04-02T01:04:03;5.68;57.14
75155;HTU21D;63735;44.730;37.818;2023-04-02T01:06:33;5.75;57.15
75155;HTU21D;63735;44.730;37.818;2023-04-02T01:09:32;5.81;57.29
75155;HTU21D;63735;44.730;37.818;2023-04-02T01:28:59;7.10;56.02
75155;HTU21D;63735;44.730;37.818;2023-04-02T01:31:27;7.25;55.87
75155;HTU21D;63735;44.730;37.818;2023-04-02T01:33:53;7.33;55.79
75155;HTU21D;63735;44.730;37.818;2023-04-02T01:42:22;7.32;55.82
75155;HTU21D;63735;44.730;37.818;2023-04-02T01:44:52;7.33;55.82
75155;HTU21D;63735;44.730;37.818;2023-04-02T01:47:22;7.31;55.80
75155;HTU21D;63735;44.730;37.818;2023-04-02T01:49:53;7.31;55.83
75155;HTU21D;63735;44.730;37.818;2023-04-02T01:52:35;7.30;55.75
75155;HTU21D;63735;44.730;37.818;2023-04-02T01:55:05;7.35;55.63
75155;HTU21D;63735;44.730;37.818;2023-04-02T01:57:31;7.43;55.48
75155;HTU21D;63735;44.730;37.818;2023-04-02T01:59:59;7.48;55.14
75155;HTU21D;63735;44.730;37.818;2023-04-02T02:02:27;7.45;54.97
75155;HTU21D;63735;44.730;37.818;2023-04-02T02:04:53;7.52;54.90
75155;HTU21D;63735;44.730;37.818;2023-04-02T02:07:20;7.63;54.64
75155;HTU21D;63735;44.730;37.818;2023-04-02T02:09:50;7.76;54.23
75155;HTU21D;63735;44.730;37.818;2023-04-02T02:12:16;7.85;54.01
75155;HTU21D;63735;44.730;37.818;2023-04-02T02:14:47;7.94;53.69
75155;HTU21D;63735;44.730;37.818;2023-04-02T02:17:16;7.99;53.49
75155;HTU21D;63735;44.730;37.818;2023-04-02T02:19:48;7.97;53.41
75155;HTU21D;63735;44.730;37.818;2023-04-02T02:22:30;7.88;53.23
75155;HTU21D;63735;44.730;37.818;2023-04-02T02:24:59;7.78;53.49
75155;HTU21D;63735;44.730;37.818;2023-04-02T02:33:25;7.37;53.35
75155;HTU21D;63735;44.730;37.818;2023-04-02T02:36:51;7.24;53.02
75155;HTU21D;63735;44.730;37.818;2023-04-02T02:39:44;7.11;52.92
75155;HTU21D;63735;44.730;37.818;2023-04-02T02:42:43;6.97;53.04
75155;HTU21D;63735;44.730;37.818;2023-04-02T02:45:16;6.93;53.15
75155;HTU21D;63735;44.730;37.818;2023-04-02T02:47:44;6.85;53.19
75155;HTU21D;63735;44.730;37.818;2023-04-02T02:50:17;6.79;53.12
75155;HTU21D;63735;44.730;37.818;2023-04-02T02:52:48;6.70;53.24
75155;HTU21D;63735;44.730;37.818;2023-04-02T02:55:18;6.66;53.33
75155;HTU21D;63735;44.730;37.818;2023-04-02T02:58:10;6.59;53.32
75155;HTU21D;63735;44.730;37.818;2023-04-02T03:00:44;6.55;53.38
75155;HTU21D;63735;44.730;37.818;2023-04-02T03:03:18;6.48;53.44
75155;HTU21D;63735;44.730;37.818;2023-04-02T03:05:52;6.45;53.34
75155;HTU21D;63735;44.730;37.818;2023-04-02T03:08:31;6.45;53.24
75155;HTU21D;63735;44.730;37.818;2023-04-02T03:11:49;6.43;53.15
75155;HTU21D;63735;44.730;37.818;2023-04-02T03:13:51;6.43;53.16
75155;HTU21D;63735;44.730;37.818;2023-04-02T03:16:29;6.39;53.17
75155;HTU21D;63735;44.730;37.818;2023-04-02T03:19:09;6.38;53.20
75155;HTU21D;63735;44.730;37.818;2023-04-02T03:24:16;6.38;53.05
75155;HTU21D;63735;44.730;37.818;2023-04-02T03:26:51;6.38;53.21
75155;HTU21D;63735;44.730;37.818;2023-04-02T03:29:25;6.34;53.26
75155;HTU21D;63735;44.730;37.818;2023-04-02T03:31:56;6.31;53.40
75155;HTU21D;63735;44.730;37.818;2023-04-02T03:34:33;6.30;53.49
75155;HTU21D;63735;44.730;37.818;2023-04-02T03:42:25;6.40;53.47
75155;HTU21D;63735;44.730;37.818;2023-04-02T03:45:25;6.49;53.40
75155;HTU21D;63735;44.730;37.818;2023-04-02T03:48:02;6.51;53.44
75155;HTU21D;63735;44.730;37.818;2023-04-02T03:51:01;6.54;53.32
75155;HTU21D;63735;44.730;37.818;2023-04-02T03:53:32;6.57;53.41
75155;HTU21D;63735;44.730;37.818;2023-04-02T03:55:59;6.65;53.11
75155;HTU21D;63735;44.730;37.818;2023-04-02T03:58:37;6.72;52.94
75155;HTU21D;63735;44.730;37.818;2023-04-02T04:01:26;6.85;52.34
75155;HTU21D;63735;44.730;37.818;2023-04-02T04:03:56;7.02;52.24
75155;HTU21D;63735;44.730;37.818;2023-04-02T04:06:29;7.20;51.65
75155;HTU21D;63735;44.730;37.818;2023-04-02T04:09:07;7.35;51.43
75155;HTU21D;63735;44.730;37.818;2023-04-02T04:11:37;7.49;51.34
75155;HTU21D;63735;44.730;37.818;2023-04-02T04:14:16;7.71;50.97
75155;HTU21D;63735;44.730;37.818;2023-04-02T04:17:01;8.02;50.49
75155;HTU21D;63735;44.730;37.818;2023-04-02T04:24:40;10.08;47.90
75155;HTU21D;63735;44.730;37.818;2023-04-02T04:27:23;12.42;43.83
75155;HTU21D;63735;44.730;37.818;2023-04-02T04:30:12;14.10;41.42
75155;HTU21D;63735;44.730;37.818;2023-04-02T04:32:49;15.90;38.85
75155;HTU21D;63735;44.730;37.818;2023-04-02T04:35:35;16.35;38.46
75155;HTU21D;63735;44.730;37.818;2023-04-02T04:38:19;16.43;38.91
75155;HTU21D;63735;44.730;37.818;2023-04-02T04:41:05;16.47;39.42
75155;HTU21D;63735;44.730;37.818;2023-04-02T04:46:22;15.59;41.02
75155;HTU21D;63735;44.730;37.818;2023-04-02T04:51:58;16.60;39.07
75155;HTU21D;63735;44.730;37.818;2023-04-02T04:54:27;17.73;37.76
75155;HTU21D;63735;44.730;37.818;2023-04-02T04:57:00;18.39;36.73
75155;HTU21D;63735;44.730;37.818;2023-04-02T04:59:31;17.89;37.19
75155;HTU21D;63735;44.730;37.818;2023-04-02T05:03:00;17.58;38.39
75155;HTU21D;63735;44.730;37.818;2023-04-02T05:04:53;17.95;37.51
75155;HTU21D;63735;44.730;37.818;2023-04-02T05:07:46;17.78;37.29
75155;HTU21D;63735;44.730;37.818;2023-04-02T05:10:25;17.59;37.62
75155;HTU21D;63735;44.730;37.818;2023-04-02T05:13:00;16.94;38.53
75155;HTU21D;63735;44.730;37.818;2023-04-02T05:15:32;16.96;38.34
75155;HTU21D;63735;44.730;37.818;2023-04-02T05:20:58;17.43;36.99
75155;HTU21D;63735;44.730;37.818;2023-04-02T05:23:36;18.37;35.15
75155;HTU21D;63735;44.730;37.818;2023-04-02T05:26:09;19.12;34.12
75155;HTU21D;63735;44.730;37.818;2023-04-02T05:28:46;19.53;33.22
75155;HTU21D;63735;44.730;37.818;2023-04-02T05:31:29;19.98;32.44
75155;HTU21D;63735;44.730;37.818;2023-04-02T05:34:00;20.48;31.72
75155;HTU21D;63735;44.730;37.818;2023-04-02T05:36:29;21.00;31.03
75155;HTU21D;63735;44.730;37.818;2023-04-02T05:38:58;22.09;29.45
75155;HTU21D;63735;44.730;37.818;2023-04-02T05:41:41;22.76;27.77
75155;HTU21D;63735;44.730;37.818;2023-04-02T05:44:35;21.31;28.75
75155;HTU21D;63735;44.730;37.818;2023-04-02T05:47:09;19.86;30.47
75155;HTU21D;63735;44.730;37.818;2023-04-02T05:52:28;18.84;30.74
75155;HTU21D;63735;44.730;37.818;2023-04-02T05:57:50;20.07;28.28
75155;HTU21D;63735;44.730;37.818;2023-04-02T06:03:38;18.77;29.30
75155;HTU21D;63735;44.730;37.818;2023-04-02T06:06:11;18.10;30.27
75155;HTU21D;63735;44.730;37.818;2023-04-02T06:08:56;17.34;31.18
75155;HTU21D;63735;44.730;37.818;2023-04-02T06:11:29;16.77;32.13
75155;HTU21D;63735;44.730;37.818;2023-04-02T06:13:56;16.30;32.48
75155;HTU21D;63735;44.730;37.818;2023-04-02T06:16:26;15.63;32.93
75155;HTU21D;63735;44.730;37.818;2023-04-02T06:18:53;14.95;33.58
75155;HTU21D;63735;44.730;37.818;2023-04-02T06:21:20;14.40;34.11
75155;HTU21D;63735;44.730;37.818;2023-04-02T06:23:59;14.05;34.66
75155;HTU21D;63735;44.730;37.818;2023-04-02T06:26:34;13.79;35.35
75155;HTU21D;63735;44.730;37.818;2023-04-02T06:29:16;13.58;35.93
75155;HTU21D;63735;44.730;37.818;2023-04-02T06:31:49;13.35;36.70
75155;HTU21D;63735;44.730;37.818;2023-04-02T06:34:20;13.15;37.21
75155;HTU21D;63735;44.730;37.818;2023-04-02T06:37:00;13.00;37.82
75155;HTU21D;63735;44.730;37.818;2023-04-02T06:39:30;12.86;38.36
75155;HTU21D;63735;44.730;37.818;2023-04-02T06:42:04;12.78;38.88
75155;HTU21D;63735;44.730;37.818;2023-04-02T06:44:49;12.75;39.23
75155;HTU21D;63735;44.730;37.818;2023-04-02T06:47:49;12.66;39.60
75155;HTU21D;63735;44.730;37.818;2023-04-02T06:50:54;12.60;40.04
75155;HTU21D;63735;44.730;37.818;2023-04-02T06:53:30;12.60;40.36
75155;HTU21D;63735;44.730;37.818;2023-04-02T06:58:53;12.56;41.05
75155;HTU21D;63735;44.730;37.818;2023-04-02T07:01:26;12.56;41.43
75155;HTU21D;63735;44.730;37.818;2023-04-02T07:03:54;12.52;41.71
75155;HTU21D;63735;44.730;37.818;2023-04-02T07:06:28;12.55;41.87
75155;HTU21D;63735;44.730;37.818;2023-04-02T07:08:58;12.57;42.00
75155;HTU21D;63735;44.730;37.818;2023-04-02T07:11:24;12.59;42.25
75155;HTU21D;63735;44.730;37.818;2023-04-02T07:13:54;12.64;42.36
75155;HTU21D;63735;44.730;37.818;2023-04-02T07:16:22;12.70;42.55
75155;HTU21D;63735;44.730;37.818;2023-04-02T07:18:51;12.82;42.61
75155;HTU21D;63735;44.730;37.818;2023-04-02T07:21:18;12.91;42.74
75155;HTU21D;63735;44.730;37.818;2023-04-02T07:23:44;13.03;42.87
75155;HTU21D;63735;44.730;37.818;2023-04-02T07:26:17;13.14;43.00
75155;HTU21D;63735;44.730;37.818;2023-04-02T07:28:43;13.22;43.03
75155;HTU21D;63735;44.730;37.818;2023-04-02T07:31:18;13.18;43.31
75155;HTU21D;63735;44.730;37.818;2023-04-02T07:33:45;13.12;43.49
75155;HTU21D;63735;44.730;37.818;2023-04-02T07:36:19;13.11;43.67
75155;HTU21D;63735;44.730;37.818;2023-04-02T07:38:46;13.15;43.71
75155;HTU21D;63735;44.730;37.818;2023-04-02T07:41:13;13.05;43.99
75155;HTU21D;63735;44.730;37.818;2023-04-02T07:43:40;12.88;44.63
75155;HTU21D;63735;44.730;37.818;2023-04-02T07:46:07;12.80;45.11
75155;HTU21D;63735;44.730;37.818;2023-04-02T07:48:33;12.66;45.67
75155;HTU21D;63735;44.730;37.818;2023-04-02T07:51:00;12.63;45.71
75155;HTU21D;63735;44.730;37.818;2023-04-02T07:53:33;12.64;45.62
75155;HTU21D;63735;44.730;37.818;2023-04-02T07:56:02;12.69;45.50
75155;HTU21D;63735;44.730;37.818;2023-04-02T07:58:29;12.55;45.52
75155;HTU21D;63735;44.730;37.818;2023-04-02T08:00:55;12.41;45.80
75155;HTU21D;63735;44.730;37.818;2023-04-02T08:03:23;12.33;45.94
75155;HTU21D;63735;44.730;37.818;2023-04-02T08:05:57;12.34;46.06
75155;HTU21D;63735;44.730;37.818;2023-04-02T08:08:24;12.35;45.99
75155;HTU21D;63735;44.730;37.818;2023-04-02T08:10:50;12.42;46.02
75155;HTU21D;63735;44.730;37.818;2023-04-02T08:13:17;12.42;46.12
75155;HTU21D;63735;44.730;37.818;2023-04-02T08:15:43;12.47;46.25
75155;HTU21D;63735;44.730;37.818;2023-04-02T08:18:09;12.55;46.30
75155;HTU21D;63735;44.730;37.818;2023-04-02T08:20:36;12.63;46.19
75155;HTU21D;63735;44.730;37.818;2023-04-02T08:23:02;12.66;46.22
75155;HTU21D;63735;44.730;37.818;2023-04-02T08:25:28;12.80;46.09
75155;HTU21D;63735;44.730;37.818;2023-04-02T08:27:55;12.87;45.86
75155;HTU21D;63735;44.730;37.818;2023-04-02T08:30:21;12.89;45.84
75155;HTU21D;63735;44.730;37.818;2023-04-02T08:32:47;12.99;45.85
75155;HTU21D;63735;44.730;37.818;2023-04-02T08:35:15;13.06;45.61
75155;HTU21D;63735;44.730;37.818;2023-04-02T08:37:41;13.08;45.54
75155;HTU21D;63735;44.730;37.818;2023-04-02T08:40:19;13.08;45.43
75155;HTU21D;63735;44.730;37.818;2023-04-02T08:48:09;13.18;45.55
75155;HTU21D;63735;44.730;37.818;2023-04-02T08:50:41;13.48;45.22
75155;HTU21D;63735;44.730;37.818;2023-04-02T08:53:17;13.91;44.58
75155;HTU21D;63735;44.730;37.818;2023-04-02T08:56:10;13.99;42.89
75155;HTU21D;63735;44.730;37.818;2023-04-02T08:59:00;13.86;42.27
75155;HTU21D;63735;44.730;37.818;2023-04-02T09:04:23;13.83;42.38
75155;HTU21D;63735;44.730;37.818;2023-04-02T09:06:53;13.92;41.81
75155;HTU21D;63735;44.730;37.818;2023-04-02T09:09:21;14.38;41.52
75155;HTU21D;63735;44.730;37.818;2023-04-02T09:11:56;14.59;40.49
75155;HTU21D;63735;44.730;37.818;2023-04-02T09:17:18;14.15;41.26
75155;HTU21D;63735;44.730;37.818;2023-04-02T09:22:34;13.76;42.23
75155;HTU21D;63735;44.730;37.818;2023-04-02T09:25:02;13.91;42.56
75155;HTU21D;63735;44.730;37.818;2023-04-02T09:27:34;14.17;42.50
75155;HTU21D;63735;44.730;37.818;2023-04-02T09:30:05;14.53;42.21
75155;HTU21D;63735;44.730;37.818;2023-04-02T09:32:51;14.57;42.05
75155;HTU21D;63735;44.730;37.818;2023-04-02T09:35:18;14.48;42.40
75155;HTU21D;63735;44.730;37.818;2023-04-02T09:37:45;14.57;41.84
75155;HTU21D;63735;44.730;37.818;2023-04-02T09:42:43;14.87;41.87
75155;HTU21D;63735;44.730;37.818;2023-04-02T09:47:42;14.44;42.96
75155;HTU21D;63735;44.730;37.818;2023-04-02T09:52:48;14.08;42.87
75155;HTU21D;63735;44.730;37.818;2023-04-02T09:57:41;14.13;42.99
75155;HTU21D;63735;44.730;37.818;2023-04-02T10:02:44;14.21;43.26
75155;HTU21D;63735;44.730;37.818;2023-04-02T10:05:20;13.96;43.79
75155;HTU21D;63735;44.730;37.818;2023-04-02T10:07:51;13.92;44.09
75155;HTU21D;63735;44.730;37.818;2023-04-02T10:12:59;14.28;43.97
75155;HTU21D;63735;44.730;37.818;2023-04-02T10:15:49;14.54;43.45
75155;HTU21D;63735;44.730;37.818;2023-04-02T10:18:56;14.63;42.85
75155;HTU21D;63735;44.730;37.818;2023-04-02T10:21:41;14.71;42.72
75155;HTU21D;63735;44.730;37.818;2023-04-02T10:24:11;14.60;42.24
75155;HTU21D;63735;44.730;37.818;2023-04-02T10:32:38;14.15;43.29
75155;HTU21D;63735;44.730;37.818;2023-04-02T10:35:26;14.08;43.93
75155;HTU21D;63735;44.730;37.818;2023-04-02T10:40:36;14.41;43.72
75155;HTU21D;63735;44.730;37.818;2023-04-02T10:45:49;13.86;45.04
75155;HTU21D;63735;44.730;37.818;2023-04-02T10:56:12;13.45;46.47
75155;HTU21D;63735;44.730;37.818;2023-04-02T10:58:53;13.47;46.67
75155;HTU21D;63735;44.730;37.818;2023-04-02T11:01:24;13.74;46.51
75155;HTU21D;63735;44.730;37.818;2023-04-02T11:03:57;14.20;46.21
75155;HTU21D;63735;44.730;37.818;2023-04-02T11:07:13;14.97;45.65
75155;HTU21D;63735;44.730;37.818;2023-04-02T11:09:23;15.93;43.92
75155;HTU21D;63735;44.730;37.818;2023-04-02T11:11:52;16.48;43.11
75155;HTU21D;63735;44.730;37.818;2023-04-02T11:14:28;16.76;42.64
75155;HTU21D;63735;44.730;37.818;2023-04-02T11:16:54;16.46;41.83
75155;HTU21D;63735;44.730;37.818;2023-04-02T11:19:31;15.59;43.19
75155;HTU21D;63735;44.730;37.818;2023-04-02T11:22:02;15.04;44.09
75155;HTU21D;63735;44.730;37.818;2023-04-02T11:24:32;14.50;44.73
75155;HTU21D;63735;44.730;37.818;2023-04-02T11:29:46;14.05;45.82
75155;HTU21D;63735;44.730;37.818;2023-04-02T11:37:10;14.32;45.99
75155;HTU21D;63735;44.730;37.818;2023-04-02T11:39:55;14.99;45.45
75155;HTU21D;63735;44.730;37.818;2023-04-02T11:42:34;15.61;44.60
75155;HTU21D;63735;44.730;37.818;2023-04-02T11:50:33;16.00;44.38
75155;HTU21D;63735;44.730;37.818;2023-04-02T11:53:04;16.22;43.92
75155;HTU21D;63735;44.730;37.818;2023-04-02T11:55:46;16.35;43.28
75155;HTU21D;63735;44.730;37.818;2023-04-02T11:58:53;16.20;43.28
75155;HTU21D;63735;44.730;37.818;2023-04-02T12:10:20;16.06;43.46
75155;HTU21D;63735;44.730;37.818;2023-04-02T12:12:47;15.63;43.34
75155;HTU21D;63735;44.730;37.818;2023-04-02T12:15:41;15.53;43.61
75155;HTU21D;63735;44.730;37.818;2023-04-02T12:18:17;15.82;43.48
75155;HTU21D;63735;44.730;37.818;2023-04-02T12:20:50;16.34;43.15
75155;HTU21D;63735;44.730;37.818;2023-04-02T12:23:19;16.67;42.25
75155;HTU21D;63735;44.730;37.818;2023-04-02T12:26:02;17.01;41.68
75155;HTU21D;63735;44.730;37.818;2023-04-02T12:28:31;17.44;40.50
75155;HTU21D;63735;44.730;37.818;2023-04-02T12:33:36;17.50;40.00
75155;HTU21D;63735;44.730;37.818;2023-04-02T12:36:06;17.91;37.52
75155;HTU21D;63735;44.730;37.818;2023-04-02T12:38:48;18.42;37.69
75155;HTU21D;63735;44.730;37.818;2023-04-02T12:46:22;19.75;38.02
75155;HTU21D;63735;44.730;37.818;2023-04-02T12:48:52;19.99;37.66
75155;HTU21D;63735;44.730;37.818;2023-04-02T12:51:19;19.60;38.11
75155;HTU21D;63735;44.730;37.818;2023-04-02T12:53:49;19.03;38.69
75155;HTU21D;63735;44.730;37.818;2023-04-02T12:56:21;18.84;39.14
75155;HTU21D;63735;44.730;37.818;2023-04-02T12:59:25;18.44;39.17
75155;HTU21D;63735;44.730;37.818;2023-04-02T13:01:59;17.44;39.97
75155;HTU21D;63735;44.730;37.818;2023-04-02T13:04:26;16.42;41.12
75155;HTU21D;63735;44.730;37.818;2023-04-02T13:06:53;15.71;42.07
75155;HTU21D;63735;44.730;37.818;2023-04-02T13:09:33;15.29;43.32
75155;HTU21D;63735;44.730;37.818;2023-04-02T13:12:01;15.12;43.53
75155;HTU21D;63735;44.730;37.818;2023-04-02T13:14:27;14.87;44.10
75155;HTU21D;63735;44.730;37.818;2023-04-02T13:16:54;14.80;44.23
75155;HTU21D;63735;44.730;37.818;2023-04-02T13:19:25;14.59;44.58
75155;HTU21D;63735;44.730;37.818;2023-04-02T13:21:52;14.44;44.79
75155;HTU21D;63735;44.730;37.818;2023-04-02T13:24:26;14.23;45.30
75155;HTU21D;63735;44.730;37.818;2023-04-02T13:27:01;14.07;45.79
75155;HTU21D;63735;44.730;37.818;2023-04-02T13:29:33;14.15;46.13
75155;HTU21D;63735;44.730;37.818;2023-04-02T13:32:02;14.48;46.36
75155;HTU21D;63735;44.730;37.818;2023-04-02T13:34:28;14.96;45.89
75155;HTU21D;63735;44.730;37.818;2023-04-02T13:36:55;15.14;45.67
75155;HTU21D;63735;44.730;37.818;2023-04-02T13:39:22;14.97;45.77
75155;HTU21D;63735;44.730;37.818;2023-04-02T13:41:55;14.75;45.96
75155;HTU21D;63735;44.730;37.818;2023-04-02T13:44:24;14.59;46.39
75155;HTU21D;63735;44.730;37.818;2023-04-02T13:46:52;15.26;46.64
75155;HTU21D;63735;44.730;37.818;2023-04-02T13:49:20;16.02;45.86
75155;HTU21D;63735;44.730;37.818;2023-04-02T13:51:48;16.29;45.44
75155;HTU21D;63735;44.730;37.818;2023-04-02T13:54:26;16.18;45.30
75155;HTU21D;63735;44.730;37.818;2023-04-02T13:56:55;16.05;45.30
75155;HTU21D;63735;44.730;37.818;2023-04-02T13:59:22;16.07;45.25
75155;HTU21D;63735;44.730;37.818;2023-04-02T14:01:50;16.18;44.89
75155;HTU21D;63735;44.730;37.818;2023-04-02T14:04:21;16.26;44.49
75155;HTU21D;63735;44.730;37.818;2023-04-02T14:22:51;14.11;43.84
75155;HTU21D;63735;44.730;37.818;2023-04-02T14:28:05;13.69;44.21
75155;HTU21D;63735;44.730;37.818;2023-04-02T14:33:37;13.32;44.22
75155;HTU21D;63735;44.730;37.818;2023-04-02T14:44:51;13.23;44.33
75155;HTU21D;63735;44.730;37.818;2023-04-02T14:50:04;13.26;44.23
75155;HTU21D;63735;44.730;37.818;2023-04-02T14:52:32;13.25;43.94
75155;HTU21D;63735;44.730;37.818;2023-04-02T14:55:05;13.14;43.55
75155;HTU21D;63735;44.730;37.818;2023-04-02T15:03:57;12.97;43.22
75155;HTU21D;63735;44.730;37.818;2023-04-02T15:06:01;12.96;43.46
75155;HTU21D;63735;44.730;37.818;2023-04-02T15:08:32;13.02;43.59
75155;HTU21D;63735;44.730;37.818;2023-04-02T15:16:17;13.04;43.40
75155;HTU21D;63735;44.730;37.818;2023-04-02T15:18:44;13.02;43.19
75155;HTU21D;63735;44.730;37.818;2023-04-02T15:24:00;13.00;43.10
75155;HTU21D;63735;44.730;37.818;2023-04-02T15:29:35;12.92;43.29
75155;HTU21D;63735;44.730;37.818;2023-04-02T15:42:38;12.69;44.64
75155;HTU21D;63735;44.730;37.818;2023-04-02T15:55:44;12.22;47.08
75155;HTU21D;63735;44.730;37.818;2023-04-02T16:03:39;12.00;48.36
75155;HTU21D;63735;44.730;37.818;2023-04-02T16:06:30;11.98;48.43
75155;HTU21D;63735;44.730;37.818;2023-04-02T16:09:17;11.91;48.57
75155;HTU21D;63735;44.730;37.818;2023-04-02T16:11:47;11.89;48.73
75155;HTU21D;63735;44.730;37.818;2023-04-02T16:14:25;11.88;48.92
75155;HTU21D;63735;44.730;37.818;2023-04-02T16:16:56;11.87;49.09
75155;HTU21D;63735;44.730;37.818;2023-04-02T16:19:40;11.85;49.52
75155;HTU21D;63735;44.730;37.818;2023-04-02T16:22:28;11.82;49.83
75155;HTU21D;63735;44.730;37.818;2023-04-02T16:25:16;11.81;49.76
75155;HTU21D;63735;44.730;37.818;2023-04-02T16:27:49;11.78;49.82
75155;HTU21D;63735;44.730;37.818;2023-04-02T16:30:49;11.76;49.99
75155;HTU21D;63735;44.730;37.818;2023-04-02T16:39:13;11.67;51.15
75155;HTU21D;63735;44.730;37.818;2023-04-02T16:47:26;11.55;52.11
75155;HTU21D;63735;44.730;37.818;2023-04-02T16:53:03;11.53;52.31
75155;HTU21D;63735;44.730;37.818;2023-04-02T16:58:44;11.48;52.26
75155;HTU21D;63735;44.730;37.818;2023-04-02T17:06:51;11.38;52.30
75155;HTU21D;63735;44.730;37.818;2023-04-02T17:09:35;11.38;52.31
75155;HTU21D;63735;44.730;37.818;2023-04-02T17:17:13;11.38;52.27
75155;HTU21D;63735;44.730;37.818;2023-04-02T17:19:42;11.40;52.20
75155;HTU21D;63735;44.730;37.818;2023-04-02T17:22:14;11.40;52.10
75155;HTU21D;63735;44.730;37.818;2023-04-02T17:24:50;11.42;51.98
75155;HTU21D;63735;44.730;37.818;2023-04-02T17:27:24;11.42;51.89
75155;HTU21D;63735;44.730;37.818;2023-04-02T17:29:53;11.41;51.83
75155;HTU21D;63735;44.730;37.818;2023-04-02T17:32:29;11.39;51.79
75155;HTU21D;63735;44.730;37.818;2023-04-02T17:34:56;11.41;51.70
75155;HTU21D;63735;44.730;37.818;2023-04-02T17:42:36;11.26;51.63
75155;HTU21D;63735;44.730;37.818;2023-04-02T17:52:50;10.93;51.97
75155;HTU21D;63735;44.730;37.818;2023-04-02T17:55:29;10.79;52.38
75155;HTU21D;63735;44.730;37.818;2023-04-02T18:00:59;10.64;52.55
75155;HTU21D;63735;44.730;37.818;2023-04-02T18:03:39;10.63;52.49
75155;HTU21D;63735;44.730;37.818;2023-04-02T18:06:17;10.71;52.28
75155;HTU21D;63735;44.730;37.818;2023-04-02T18:11:27;10.83;51.96
75155;HTU21D;63735;44.730;37.818;2023-04-02T18:31:48;10.87;52.03
75155;HTU21D;63735;44.730;37.818;2023-04-02T18:42:04;11.02;52.05
75155;HTU21D;63735;44.730;37.818;2023-04-02T18:49:40;11.07;52.17
75155;HTU21D;63735;44.730;37.818;2023-04-02T18:52:12;11.08;52.17
75155;HTU21D;63735;44.730;37.818;2023-04-02T18:54:45;11.10;52.14
75155;HTU21D;63735;44.730;37.818;2023-04-02T18:57:34;11.11;52.19
75155;HTU21D;63735;44.730;37.818;2023-04-02T18:59:59;11.12;52.33
75155;HTU21D;63735;44.730;37.818;2023-04-02T19:02:50;11.11;52.40
75155;HTU21D;63735;44.730;37.818;2023-04-02T19:05:22;11.14;52.49
75155;HTU21D;63735;44.730;37.818;2023-04-02T19:07:53;11.14;53.08
75155;HTU21D;63735;44.730;37.818;2023-04-02T19:10:26;11.12;52.97
75155;HTU21D;63735;44.730;37.818;2023-04-02T19:12:53;11.14;53.10
75155;HTU21D;63735;44.730;37.818;2023-04-02T19:15:19;11.13;53.07
75155;HTU21D;63735;44.730;37.818;2023-04-02T19:17:47;11.14;53.09
75155;HTU21D;63735;44.730;37.818;2023-04-02T19:23:17;11.04;54.17
75155;HTU21D;63735;44.730;37.818;2023-04-02T19:25:53;11.00;53.94
75155;HTU21D;63735;44.730;37.818;2023-04-02T19:33:59;10.95;54.11
75155;HTU21D;63735;44.730;37.818;2023-04-02T19:36:42;10.94;54.10
75155;HTU21D;63735;44.730;37.818;2023-04-02T19:41:51;10.92;54.31
75155;HTU21D;63735;44.730;37.818;2023-04-02T19:44:18;10.89;54.64
75155;HTU21D;63735;44.730;37.818;2023-04-02T19:46:44;10.86;54.82
75155;HTU21D;63735;44.730;37.818;2023-04-02T19:52:06;10.83;55.05
75155;HTU21D;63735;44.730;37.818;2023-04-02T19:54:31;10.83;55.26
75155;HTU21D;63735;44.730;37.818;2023-04-02T19:56:57;10.82;55.38
75155;HTU21D;63735;44.730;37.818;2023-04-02T19:59:24;10.84;55.31
75155;HTU21D;63735;44.730;37.818;2023-04-02T20:01:50;10.86;55.12
75155;HTU21D;63735;44.730;37.818;2023-04-02T20:04:16;10.86;55.06
75155;HTU21D;63735;44.730;37.818;2023-04-02T20:06:42;10.87;55.07
75155;HTU21D;63735;44.730;37.818;2023-04-02T20:09:07;10.89;55.06
75155;HTU21D;63735;44.730;37.818;2023-04-02T20:11:34;10.89;55.06
75155;HTU21D;63735;44.730;37.818;2023-04-02T20:14:00;10.88;55.23
75155;HTU21D;63735;44.730;37.818;2023-04-02T20:16:26;10.87;55.19
75155;HTU21D;63735;44.730;37.818;2023-04-02T20:18:52;10.90;55.12
75155;HTU21D;63735;44.730;37.818;2023-04-02T20:21:17;10.89;55.08
75155;HTU21D;63735;44.730;37.818;2023-04-02T20:23:43;10.89;55.10
75155;HTU21D;63735;44.730;37.818;2023-04-02T20:26:09;10.87;55.15
75155;HTU21D;63735;44.730;37.818;2023-04-02T20:28:36;10.86;55.19
75155;HTU21D;63735;44.730;37.818;2023-04-02T20:31:11;10.84;55.39
75155;HTU21D;63735;44.730;37.818;2023-04-02T20:33:37;10.79;55.40
75155;HTU21D;63735;44.730;37.818;2023-04-02T20:36:04;10.70;55.56
75155;HTU21D;63735;44.730;37.818;2023-04-02T20:38:30;10.62;55.75
75155;HTU21D;63735;44.730;37.818;2023-04-02T20:40:56;10.55;55.90
75155;HTU21D;63735;44.730;37.818;2023-04-02T20:43:22;10.49;56.13
75155;HTU21D;63735;44.730;37.818;2023-04-02T20:45:54;10.44;56.35
75155;HTU21D;63735;44.730;37.818;2023-04-02T20:48:21;10.43;56.44
75155;HTU21D;63735;44.730;37.818;2023-04-02T20:50:47;10.46;56.43
75155;HTU21D;63735;44.730;37.818;2023-04-02T20:53:14;10.49;56.36
75155;HTU21D;63735;44.730;37.818;2023-04-02T20:55:40;10.48;56.55
75155;HTU21D;63735;44.730;37.818;2023-04-02T20:58:06;10.46;56.71
75155;HTU21D;63735;44.730;37.818;2023-04-02T21:00:32;10.49;56.68
75155;HTU21D;63735;44.730;37.818;2023-04-02T21:02:58;10.50;56.56